sensor_id;sensor_type;location;lat;lon;timestamp;temperature;humidity
47576;DHT22;33304;52.456;13.328;2023-06-10T00:02:05;17.70;25.60
47576;DHT22;33304;52.456;13.328;2023-06-10T00:04:32;17.70;25.40
47576;DHT22;33304;52.456;13.328;2023-06-10T00:06:59;17.60;25.50
47576;DHT22;33304;52.456;13.328;2023-06-10T00:09:26;17.70;25.60
47576;DHT22;33304;52.456;13.328;2023-06-10T00:11:54;17.70;25.40
47576;DHT22;33304;52.456;13.328;2023-06-10T00:14:27;17.70;25.60
47576;DHT22;33304;52.456;13.328;2023-06-10T00:16:54;17.60;25.70
47576;DHT22;33304;52.456;13.328;2023-06-10T00:19:21;17.50;26.20
47576;DHT22;33304;52.456;13.328;2023-06-10T00:21:51;17.50;26.50
47576;DHT22;33304;52.456;13.328;2023-06-10T00:24:19;17.40;27.20
47576;DHT22;33304;52.456;13.328;2023-06-10T00:26:46;17.50;27.20
47576;DHT22;33304;52.456;13.328;2023-06-10T00:29:13;17.50;27.20
47576;DHT22;33304;52.456;13.328;2023-06-10T00:31:44;17.50;27.20
47576;DHT22;33304;52.456;13.328;2023-06-10T00:34:11;17.50;27.20
47576;DHT22;33304;52.456;13.328;2023-06-10T00:36:38;17.40;27.20
47576;DHT22;33304;52.456;13.328;2023-06-10T00:39:05;17.40;27.20
47576;DHT22;33304;52.456;13.328;2023-06-10T00:41:33;17.40;27.20
47576;DHT22;33304;52.456;13.328;2023-06-10T00:44:00;17.40;27.20
47576;DHT22;33304;52.456;13.328;2023-06-10T00:46:28;17.50;27.30
47576;DHT22;33304;52.456;13.328;2023-06-10T00:48:59;17.40;27.20
47576;DHT22;33304;52.456;13.328;2023-06-10T00:51:27;17.40;27.20
47576;DHT22;33304;52.456;13.328;2023-06-10T00:53:54;17.30;27.10
47576;DHT22;33304;52.456;13.328;2023-06-10T00:56:22;17.30;27.10
47576;DHT22;33304;52.456;13.328;2023-06-10T00:58:49;17.30;27.10
47576;DHT22;33304;52.456;13.328;2023-06-10T01:01:17;17.30;27.10
47576;DHT22;33304;52.456;13.328;2023-06-10T01:03:46;17.30;27.10
47576;DHT22;33304;52.456;13.328;2023-06-10T01:06:30;17.30;27.10
47576;DHT22;33304;52.456;13.328;2023-06-10T01:09:09;17.20;27.10
47576;DHT22;33304;52.456;13.328;2023-06-10T01:11:45;17.30;27.10
47576;DHT22;33304;52.456;13.328;2023-06-10T01:14:14;17.20;27.10
47576;DHT22;33304;52.456;13.328;2023-06-10T01:16:42;17.30;27.10
47576;DHT22;33304;52.456;13.328;2023-06-10T01:19:11;17.30;27.10
47576;DHT22;33304;52.456;13.328;2023-06-10T01:21:41;17.30;27.10
47576;DHT22;33304;52.456;13.328;2023-06-10T01:24:14;17.20;27.00
47576;DHT22;33304;52.456;13.328;2023-06-10T01:26:45;17.10;27.60
47576;DHT22;33304;52.456;13.328;2023-06-10T01:29:18;17.10;27.20
47576;DHT22;33304;52.456;13.328;2023-06-10T01:31:49;17.10;27.20
47576;DHT22;33304;52.456;13.328;2023-06-10T01:34:21;17.10;27.50
47576;DHT22;33304;52.456;13.328;2023-06-10T01:36:52;17.10;27.80
47576;DHT22;33304;52.456;13.328;2023-06-10T01:39:23;17.00;27.90
47576;DHT22;33304;52.456;13.328;2023-06-10T01:41:52;17.00;28.00
47576;DHT22;33304;52.456;13.328;2023-06-10T01:44:21;17.00;28.20
47576;DHT22;33304;52.456;13.328;2023-06-10T01:46:49;16.90;28.50
47576;DHT22;33304;52.456;13.328;2023-06-10T01:49:16;16.90;28.20
47576;DHT22;33304;52.456;13.328;2023-06-10T01:51:43;16.90;28.40
47576;DHT22;33304;52.456;13.328;2023-06-10T01:54:12;16.90;28.20
47576;DHT22;33304;52.456;13.328;2023-06-10T01:56:39;16.90;28.30
47576;DHT22;33304;52.456;13.328;2023-06-10T01:59:06;16.90;28.60
47576;DHT22;33304;52.456;13.328;2023-06-10T02:01:33;16.80;28.60
47576;DHT22;33304;52.456;13.328;2023-06-10T02:04:02;16.80;29.10
47576;DHT22;33304;52.456;13.328;2023-06-10T02:06:31;16.80;28.60
47576;DHT22;33304;52.456;13.328;2023-06-10T02:09:00;16.80;28.90
47576;DHT22;33304;52.456;13.328;2023-06-10T02:11:30;16.70;29.20
47576;DHT22;33304;52.456;13.328;2023-06-10T02:13:57;16.70;29.10
47576;DHT22;33304;52.456;13.328;2023-06-10T02:16:25;16.70;29.60
47576;DHT22;33304;52.456;13.328;2023-06-10T02:18:52;16.50;30.00
47576;DHT22;33304;52.456;13.328;2023-06-10T02:21:20;16.50;30.00
47576;DHT22;33304;52.456;13.328;2023-06-10T02:23:47;16.60;29.70
47576;DHT22;33304;52.456;13.328;2023-06-10T02:26:14;16.60;30.00
47576;DHT22;33304;52.456;13.328;2023-06-10T02:28:44;16.50;30.00
47576;DHT22;33304;52.456;13.328;2023-06-10T02:31:13;16.60;30.00
47576;DHT22;33304;52.456;13.328;2023-06-10T02:33:40;16.70;29.70
47576;DHT22;33304;52.456;13.328;2023-06-10T02:36:08;16.70;29.70
47576;DHT22;33304;52.456;13.328;2023-06-10T02:38:39;16.80;29.00
47576;DHT22;33304;52.456;13.328;2023-06-10T02:41:06;16.80;29.60
47576;DHT22;33304;52.456;13.328;2023-06-10T02:43:33;16.60;29.90
47576;DHT22;33304;52.456;13.328;2023-06-10T02:46:03;16.60;30.30
47576;DHT22;33304;52.456;13.328;2023-06-10T02:48:30;16.40;30.50
47576;DHT22;33304;52.456;13.328;2023-06-10T02:50:58;16.40;31.00
47576;DHT22;33304;52.456;13.328;2023-06-10T02:53:32;16.40;31.40
47576;DHT22;33304;52.456;13.328;2023-06-10T02:56:05;16.30;31.50
47576;DHT22;33304;52.456;13.328;2023-06-10T02:58:32;16.30;31.60
47576;DHT22;33304;52.456;13.328;2023-06-10T03:01:00;16.40;31.40
47576;DHT22;33304;52.456;13.328;2023-06-10T03:03:33;16.40;30.90
47576;DHT22;33304;52.456;13.328;2023-06-10T03:06:08;16.40;31.20
47576;DHT22;33304;52.456;13.328;2023-06-10T03:08:36;16.40;31.40
47576;DHT22;33304;52.456;13.328;2023-06-10T03:11:08;16.40;31.20
47576;DHT22;33304;52.456;13.328;2023-06-10T03:13:38;16.70;30.40
47576;DHT22;33304;52.456;13.328;2023-06-10T03:16:05;16.60;30.20
47576;DHT22;33304;52.456;13.328;2023-06-10T03:18:37;16.60;30.30
47576;DHT22;33304;52.456;13.328;2023-06-10T03:21:05;16.50;30.90
47576;DHT22;33304;52.456;13.328;2023-06-10T03:23:32;16.50;30.90
47576;DHT22;33304;52.456;13.328;2023-06-10T03:26:00;16.40;31.40
47576;DHT22;33304;52.456;13.328;2023-06-10T03:28:28;16.40;31.70
47576;DHT22;33304;52.456;13.328;2023-06-10T03:30:56;16.40;31.70
47576;DHT22;33304;52.456;13.328;2023-06-10T03:33:25;16.50;31.50
47576;DHT22;33304;52.456;13.328;2023-06-10T03:35:54;16.40;31.70
47576;DHT22;33304;52.456;13.328;2023-06-10T03:38:23;16.40;31.60
47576;DHT22;33304;52.456;13.328;2023-06-10T03:40:50;16.40;31.60
47576;DHT22;33304;52.456;13.328;2023-06-10T03:43:17;16.40;31.70
47576;DHT22;33304;52.456;13.328;2023-06-10T03:45:45;16.50;31.50
47576;DHT22;33304;52.456;13.328;2023-06-10T03:48:12;16.50;31.20
47576;DHT22;33304;52.456;13.328;2023-06-10T03:50:47;16.40;31.90
47576;DHT22;33304;52.456;13.328;2023-06-10T03:53:18;16.40;32.00
47576;DHT22;33304;52.456;13.328;2023-06-10T03:55:46;16.40;31.60
47576;DHT22;33304;52.456;13.328;2023-06-10T03:58:15;16.60;31.70
47576;DHT22;33304;52.456;13.328;2023-06-10T04:00:44;16.60;31.30
47576;DHT22;33304;52.456;13.328;2023-06-10T04:03:11;16.60;31.40
47576;DHT22;33304;52.456;13.328;2023-06-10T04:05:42;16.50;31.90
47576;DHT22;33304;52.456;13.328;2023-06-10T04:08:09;16.50;32.20
47576;DHT22;33304;52.456;13.328;2023-06-10T04:10:38;16.50;31.50
47576;DHT22;33304;52.456;13.328;2023-06-10T04:13:05;16.60;31.40
47576;DHT22;33304;52.456;13.328;2023-06-10T04:15:38;16.60;32.20
47576;DHT22;33304;52.456;13.328;2023-06-10T04:18:10;16.70;30.60
47576;DHT22;33304;52.456;13.328;2023-06-10T04:20:37;16.90;29.70
47576;DHT22;33304;52.456;13.328;2023-06-10T04:23:04;17.10;29.00
47576;DHT22;33304;52.456;13.328;2023-06-10T04:25:31;17.40;27.80
47576;DHT22;33304;52.456;13.328;2023-06-10T04:28:00;17.60;27.30
47576;DHT22;33304;52.456;13.328;2023-06-10T04:30:28;17.70;27.40
47576;DHT22;33304;52.456;13.328;2023-06-10T04:32:57;17.80;27.50
47576;DHT22;33304;52.456;13.328;2023-06-10T04:35:24;17.80;27.50
47576;DHT22;33304;52.456;13.328;2023-06-10T04:37:52;18.00;26.20
47576;DHT22;33304;52.456;13.328;2023-06-10T04:40:20;18.00;25.90
47576;DHT22;33304;52.456;13.328;2023-06-10T04:42:49;17.90;26.20
47576;DHT22;33304;52.456;13.328;2023-06-10T04:45:17;18.00;26.70
47576;DHT22;33304;52.456;13.328;2023-06-10T04:47:44;17.70;27.40
47576;DHT22;33304;52.456;13.328;2023-06-10T04:50:11;17.60;27.30
47576;DHT22;33304;52.456;13.328;2023-06-10T04:52:39;17.70;27.50
47576;DHT22;33304;52.456;13.328;2023-06-10T04:55:08;17.50;27.20
47576;DHT22;33304;52.456;13.328;2023-06-10T04:57:35;17.50;27.20
47576;DHT22;33304;52.456;13.328;2023-06-10T05:00:03;17.80;26.80
47576;DHT22;33304;52.456;13.328;2023-06-10T05:02:33;18.00;25.90
47576;DHT22;33304;52.456;13.328;2023-06-10T05:05:00;18.10;25.80
47576;DHT22;33304;52.456;13.328;2023-06-10T05:07:27;17.80;26.50
47576;DHT22;33304;52.456;13.328;2023-06-10T05:09:54;17.70;27.40
47576;DHT22;33304;52.456;13.328;2023-06-10T05:12:21;17.80;27.00
47576;DHT22;33304;52.456;13.328;2023-06-10T05:14:49;17.80;26.90
47576;DHT22;33304;52.456;13.328;2023-06-10T05:17:16;17.90;26.30
47576;DHT22;33304;52.456;13.328;2023-06-10T05:19:44;17.90;26.60
47576;DHT22;33304;52.456;13.328;2023-06-10T05:22:13;17.70;27.40
47576;DHT22;33304;52.456;13.328;2023-06-10T05:24:42;17.60;27.40
47576;DHT22;33304;52.456;13.328;2023-06-10T05:27:09;17.70;27.40
47576;DHT22;33304;52.456;13.328;2023-06-10T05:29:37;17.90;26.20
47576;DHT22;33304;52.456;13.328;2023-06-10T05:32:05;17.90;26.20
47576;DHT22;33304;52.456;13.328;2023-06-10T05:34:32;18.00;25.90
47576;DHT22;33304;52.456;13.328;2023-06-10T05:37:01;18.00;25.90
47576;DHT22;33304;52.456;13.328;2023-06-10T05:39:28;18.10;25.60
47576;DHT22;33304;52.456;13.328;2023-06-10T05:41:55;18.20;25.60
47576;DHT22;33304;52.456;13.328;2023-06-10T05:44:24;18.00;26.20
47576;DHT22;33304;52.456;13.328;2023-06-10T05:46:51;18.30;25.60
47576;DHT22;33304;52.456;13.328;2023-06-10T05:49:18;18.20;25.70
47576;DHT22;33304;52.456;13.328;2023-06-10T05:51:45;18.30;25.40
47576;DHT22;33304;52.456;13.328;2023-06-10T05:54:13;18.50;24.90
47576;DHT22;33304;52.456;13.328;2023-06-10T05:56:41;18.70;24.20
47576;DHT22;33304;52.456;13.328;2023-06-10T05:59:08;18.80;23.80
47576;DHT22;33304;52.456;13.328;2023-06-10T06:01:35;18.70;24.70
47576;DHT22;33304;52.456;13.328;2023-06-10T06:04:03;18.80;24.60
47576;DHT22;33304;52.456;13.328;2023-06-10T06:06:30;19.00;23.60
47576;DHT22;33304;52.456;13.328;2023-06-10T06:08:57;19.30;22.90
47576;DHT22;33304;52.456;13.328;2023-06-10T06:11:25;19.60;21.90
47576;DHT22;33304;52.456;13.328;2023-06-10T06:13:53;19.70;22.20
47576;DHT22;33304;52.456;13.328;2023-06-10T06:16:20;19.80;21.70
47576;DHT22;33304;52.456;13.328;2023-06-10T06:18:47;19.60;22.20
47576;DHT22;33304;52.456;13.328;2023-06-10T06:21:14;19.70;22.40
47576;DHT22;33304;52.456;13.328;2023-06-10T06:23:41;19.80;21.80
47576;DHT22;33304;52.456;13.328;2023-06-10T06:26:08;19.80;21.70
47576;DHT22;33304;52.456;13.328;2023-06-10T06:28:36;20.10;20.90
47576;DHT22;33304;52.456;13.328;2023-06-10T06:31:04;20.30;20.70
47576;DHT22;33304;52.456;13.328;2023-06-10T06:33:31;20.30;19.60
47576;DHT22;33304;52.456;13.328;2023-06-10T06:35:58;20.50;19.70
47576;DHT22;33304;52.456;13.328;2023-06-10T06:38:26;20.50;19.70
47576;DHT22;33304;52.456;13.328;2023-06-10T06:40:53;20.70;19.80
47576;DHT22;33304;52.456;13.328;2023-06-10T06:43:21;20.80;19.90
47576;DHT22;33304;52.456;13.328;2023-06-10T06:45:57;20.70;19.80
47576;DHT22;33304;52.456;13.328;2023-06-10T06:48:24;20.70;19.80
47576;DHT22;33304;52.456;13.328;2023-06-10T06:50:51;20.60;19.80
47576;DHT22;33304;52.456;13.328;2023-06-10T06:53:18;20.80;19.90
47576;DHT22;33304;52.456;13.328;2023-06-10T06:55:45;20.90;20.00
47576;DHT22;33304;52.456;13.328;2023-06-10T06:58:12;20.90;19.80
47576;DHT22;33304;52.456;13.328;2023-06-10T07:00:40;21.00;20.10
47576;DHT22;33304;52.456;13.328;2023-06-10T07:03:08;21.10;20.10
47576;DHT22;33304;52.456;13.328;2023-06-10T07:05:35;21.00;20.10
47576;DHT22;33304;52.456;13.328;2023-06-10T07:08:02;21.10;20.10
47576;DHT22;33304;52.456;13.328;2023-06-10T07:10:29;21.30;18.60
47576;DHT22;33304;52.456;13.328;2023-06-10T07:12:56;21.60;18.20
47576;DHT22;33304;52.456;13.328;2023-06-10T07:15:23;21.90;17.50
47576;DHT22;33304;52.456;13.328;2023-06-10T07:17:50;21.90;17.10
47576;DHT22;33304;52.456;13.328;2023-06-10T07:20:19;22.00;17.50
47576;DHT22;33304;52.456;13.328;2023-06-10T07:22:46;22.30;16.30
47576;DHT22;33304;52.456;13.328;2023-06-10T07:25:13;22.40;16.50
47576;DHT22;33304;52.456;13.328;2023-06-10T07:27:41;22.30;15.90
47576;DHT22;33304;52.456;13.328;2023-06-10T07:30:09;22.30;15.80
47576;DHT22;33304;52.456;13.328;2023-06-10T07:32:36;22.40;16.10
47576;DHT22;33304;52.456;13.328;2023-06-10T07:35:08;22.50;15.80
47576;DHT22;33304;52.456;13.328;2023-06-10T07:37:37;22.50;16.40
47576;DHT22;33304;52.456;13.328;2023-06-10T07:40:05;22.50;15.70
47576;DHT22;33304;52.456;13.328;2023-06-10T07:42:34;22.60;16.00
47576;DHT22;33304;52.456;13.328;2023-06-10T07:45:01;22.80;15.60
47576;DHT22;33304;52.456;13.328;2023-06-10T07:47:29;22.70;15.40
47576;DHT22;33304;52.456;13.328;2023-06-10T07:49:56;22.60;15.20
47576;DHT22;33304;52.456;13.328;2023-06-10T07:52:24;22.70;15.70
47576;DHT22;33304;52.456;13.328;2023-06-10T07:54:53;22.80;15.50
47576;DHT22;33304;52.456;13.328;2023-06-10T07:57:20;22.80;14.60
47576;DHT22;33304;52.456;13.328;2023-06-10T07:59:47;22.70;14.80
47576;DHT22;33304;52.456;13.328;2023-06-10T08:02:14;22.60;15.40
47576;DHT22;33304;52.456;13.328;2023-06-10T08:04:41;22.70;15.10
47576;DHT22;33304;52.456;13.328;2023-06-10T08:07:09;22.80;15.30
47576;DHT22;33304;52.456;13.328;2023-06-10T08:09:36;22.80;16.00
47576;DHT22;33304;52.456;13.328;2023-06-10T08:12:07;22.90;15.10
47576;DHT22;33304;52.456;13.328;2023-06-10T08:14:35;23.00;14.90
47576;DHT22;33304;52.456;13.328;2023-06-10T08:17:03;22.90;15.00
47576;DHT22;33304;52.456;13.328;2023-06-10T08:19:31;22.90;14.20
47576;DHT22;33304;52.456;13.328;2023-06-10T08:21:58;22.90;14.00
47576;DHT22;33304;52.456;13.328;2023-06-10T08:24:25;22.90;14.50
47576;DHT22;33304;52.456;13.328;2023-06-10T08:26:53;23.00;14.80
47576;DHT22;33304;52.456;13.328;2023-06-10T08:29:22;23.20;13.80
47576;DHT22;33304;52.456;13.328;2023-06-10T08:31:49;23.40;13.50
47576;DHT22;33304;52.456;13.328;2023-06-10T08:34:16;23.50;13.90
47576;DHT22;33304;52.456;13.328;2023-06-10T08:36:43;23.70;13.00
47576;DHT22;33304;52.456;13.328;2023-06-10T08:39:11;24.00;13.10
47576;DHT22;33304;52.456;13.328;2023-06-10T08:41:42;24.20;12.30
47576;DHT22;33304;52.456;13.328;2023-06-10T08:44:12;24.30;12.40
47576;DHT22;33304;52.456;13.328;2023-06-10T08:46:42;24.40;12.50
47576;DHT22;33304;52.456;13.328;2023-06-10T08:49:15;24.60;12.60
47576;DHT22;33304;52.456;13.328;2023-06-10T08:51:45;24.60;12.60
47576;DHT22;33304;52.456;13.328;2023-06-10T08:54:17;24.70;11.80
47576;DHT22;33304;52.456;13.328;2023-06-10T08:56:49;24.80;11.80
47576;DHT22;33304;52.456;13.328;2023-06-10T08:59:16;24.80;10.30
47576;DHT22;33304;52.456;13.328;2023-06-10T09:01:46;24.90;10.60
47576;DHT22;33304;52.456;13.328;2023-06-10T09:04:13;25.00;9.90
47576;DHT22;33304;52.456;13.328;2023-06-10T09:06:44;25.10;10.50
47576;DHT22;33304;52.456;13.328;2023-06-10T09:09:12;25.30;9.60
47576;DHT22;33304;52.456;13.328;2023-06-10T09:11:42;25.50;10.10
47576;DHT22;33304;52.456;13.328;2023-06-10T09:14:10;25.70;8.90
47576;DHT22;33304;52.456;13.328;2023-06-10T09:16:38;25.80;8.10
47576;DHT22;33304;52.456;13.328;2023-06-10T09:19:07;25.60;8.50
47576;DHT22;33304;52.456;13.328;2023-06-10T09:21:35;25.70;8.20
47576;DHT22;33304;52.456;13.328;2023-06-10T09:24:03;25.90;8.10
47576;DHT22;33304;52.456;13.328;2023-06-10T09:26:30;26.10;8.00
47576;DHT22;33304;52.456;13.328;2023-06-10T09:29:03;26.30;6.30
47576;DHT22;33304;52.456;13.328;2023-06-10T09:31:31;26.30;5.50
47576;DHT22;33304;52.456;13.328;2023-06-10T09:34:07;26.40;6.30
47576;DHT22;33304;52.456;13.328;2023-06-10T09:36:35;26.60;5.60
47576;DHT22;33304;52.456;13.328;2023-06-10T09:39:04;26.80;5.10
47576;DHT22;33304;52.456;13.328;2023-06-10T09:41:34;26.80;5.10
47576;DHT22;33304;52.456;13.328;2023-06-10T09:44:11;26.80;5.00
47576;DHT22;33304;52.456;13.328;2023-06-10T09:46:38;26.70;5.80
47576;DHT22;33304;52.456;13.328;2023-06-10T09:49:05;26.80;4.90
47576;DHT22;33304;52.456;13.328;2023-06-10T09:51:33;26.80;4.90
47576;DHT22;33304;52.456;13.328;2023-06-10T09:54:02;26.90;4.10
47576;DHT22;33304;52.456;13.328;2023-06-10T09:56:34;27.00;3.50
47576;DHT22;33304;52.456;13.328;2023-06-10T09:59:02;27.00;3.50
47576;DHT22;33304;52.456;13.328;2023-06-10T10:01:32;27.10;4.70
47576;DHT22;33304;52.456;13.328;2023-06-10T10:03:59;27.20;3.60
47576;DHT22;33304;52.456;13.328;2023-06-10T10:06:27;27.00;5.50
47576;DHT22;33304;52.456;13.328;2023-06-10T10:08:56;26.80;4.70
47576;DHT22;33304;52.456;13.328;2023-06-10T10:11:24;26.50;5.30
47576;DHT22;33304;52.456;13.328;2023-06-10T10:13:52;26.10;6.10
47576;DHT22;33304;52.456;13.328;2023-06-10T10:16:21;26.10;5.90
47576;DHT22;33304;52.456;13.328;2023-06-10T10:18:52;26.00;5.50
47576;DHT22;33304;52.456;13.328;2023-06-10T10:21:23;26.00;5.90
47576;DHT22;33304;52.456;13.328;2023-06-10T10:23:56;26.00;5.90
47576;DHT22;33304;52.456;13.328;2023-06-10T10:26:27;25.80;5.70
47576;DHT22;33304;52.456;13.328;2023-06-10T10:29:05;25.70;5.30
47576;DHT22;33304;52.456;13.328;2023-06-10T10:31:35;25.70;5.10
47576;DHT22;33304;52.456;13.328;2023-06-10T10:34:04;25.60;5.60
47576;DHT22;33304;52.456;13.328;2023-06-10T10:36:33;25.60;5.70
47576;DHT22;33304;52.456;13.328;2023-06-10T10:39:03;25.50;5.20
47576;DHT22;33304;52.456;13.328;2023-06-10T10:41:32;25.40;5.50
47576;DHT22;33304;52.456;13.328;2023-06-10T10:44:01;25.30;5.60
47576;DHT22;33304;52.456;13.328;2023-06-10T10:46:29;25.20;5.70
47576;DHT22;33304;52.456;13.328;2023-06-10T10:48:58;25.30;4.70
47576;DHT22;33304;52.456;13.328;2023-06-10T10:51:34;25.20;4.60
47576;DHT22;33304;52.456;13.328;2023-06-10T10:54:11;25.30;4.60
47576;DHT22;33304;52.456;13.328;2023-06-10T10:57:11;25.40;4.50
47576;DHT22;33304;52.456;13.328;2023-06-10T10:59:52;25.50;2.70
47576;DHT22;33304;52.456;13.328;2023-06-10T11:02:40;25.70;2.80
47576;DHT22;33304;52.456;13.328;2023-06-10T11:05:10;25.70;1.10
47576;DHT22;33304;52.456;13.328;2023-06-10T11:07:38;25.80;2.00
47576;DHT22;33304;52.456;13.328;2023-06-10T11:10:10;26.00;1.40
47576;DHT22;33304;52.456;13.328;2023-06-10T11:12:56;26.30;1.00
47576;DHT22;33304;52.456;13.328;2023-06-10T11:15:25;26.70;1.00
47576;DHT22;33304;52.456;13.328;2023-06-10T11:18:23;26.90;1.00
47576;DHT22;33304;52.456;13.328;2023-06-10T11:20:52;27.20;1.00
47576;DHT22;33304;52.456;13.328;2023-06-10T11:23:32;27.40;1.00
47576;DHT22;33304;52.456;13.328;2023-06-10T11:26:13;27.60;1.00
47576;DHT22;33304;52.456;13.328;2023-06-10T11:29:00;27.80;1.00
47576;DHT22;33304;52.456;13.328;2023-06-10T11:31:29;28.00;1.00
47576;DHT22;33304;52.456;13.328;2023-06-10T11:33:57;28.00;1.00
47576;DHT22;33304;52.456;13.328;2023-06-10T11:36:25;27.90;1.00
47576;DHT22;33304;52.456;13.328;2023-06-10T11:38:55;27.80;1.00
47576;DHT22;33304;52.456;13.328;2023-06-10T11:41:23;27.90;1.00
47576;DHT22;33304;52.456;13.328;2023-06-10T11:43:52;28.10;1.00
47576;DHT22;33304;52.456;13.328;2023-06-10T11:46:20;28.10;1.00
47576;DHT22;33304;52.456;13.328;2023-06-10T11:48:51;28.20;1.00
47576;DHT22;33304;52.456;13.328;2023-06-10T11:51:18;28.50;1.00
47576;DHT22;33304;52.456;13.328;2023-06-10T11:53:46;28.70;1.00
47576;DHT22;33304;52.456;13.328;2023-06-10T11:56:19;29.10;1.00
47576;DHT22;33304;52.456;13.328;2023-06-10T11:58:53;29.20;1.00
47576;DHT22;33304;52.456;13.328;2023-06-10T12:01:21;29.20;1.00
47576;DHT22;33304;52.456;13.328;2023-06-10T12:03:57;29.10;1.00
47576;DHT22;33304;52.456;13.328;2023-06-10T12:06:24;29.20;1.00
47576;DHT22;33304;52.456;13.328;2023-06-10T12:08:51;29.30;1.00
47576;DHT22;33304;52.456;13.328;2023-06-10T12:11:18;29.20;1.00
47576;DHT22;33304;52.456;13.328;2023-06-10T12:13:47;29.20;1.00
47576;DHT22;33304;52.456;13.328;2023-06-10T12:16:17;29.10;1.00
47576;DHT22;33304;52.456;13.328;2023-06-10T12:18:45;29.60;1.00
47576;DHT22;33304;52.456;13.328;2023-06-10T12:21:20;29.70;1.00
47576;DHT22;33304;52.456;13.328;2023-06-10T12:24:04;29.60;1.00
47576;DHT22;33304;52.456;13.328;2023-06-10T12:26:39;29.70;1.00
47576;DHT22;33304;52.456;13.328;2023-06-10T12:29:20;29.90;1.00
47576;DHT22;33304;52.456;13.328;2023-06-10T12:31:58;30.20;1.00
47576;DHT22;33304;52.456;13.328;2023-06-10T12:34:36;30.40;1.00
47576;DHT22;33304;52.456;13.328;2023-06-10T12:37:05;31.00;1.00
47576;DHT22;33304;52.456;13.328;2023-06-10T12:39:33;31.40;1.00
47576;DHT22;33304;52.456;13.328;2023-06-10T12:42:00;32.00;1.00
47576;DHT22;33304;52.456;13.328;2023-06-10T12:44:29;32.00;1.00
47576;DHT22;33304;52.456;13.328;2023-06-10T12:46:57;32.20;1.00
47576;DHT22;33304;52.456;13.328;2023-06-10T12:49:25;32.30;1.00
47576;DHT22;33304;52.456;13.328;2023-06-10T12:51:52;32.50;1.00
47576;DHT22;33304;52.456;13.328;2023-06-10T12:54:20;32.50;1.00
47576;DHT22;33304;52.456;13.328;2023-06-10T12:56:47;32.80;1.00
47576;DHT22;33304;52.456;13.328;2023-06-10T12:59:14;33.10;1.00
47576;DHT22;33304;52.456;13.328;2023-06-10T13:01:41;32.90;1.00
47576;DHT22;33304;52.456;13.328;2023-06-10T13:04:10;32.80;1.00
47576;DHT22;33304;52.456;13.328;2023-06-10T13:06:37;33.50;1.00
47576;DHT22;33304;52.456;13.328;2023-06-10T13:09:06;34.30;1.00
47576;DHT22;33304;52.456;13.328;2023-06-10T13:11:34;34.60;1.00
47576;DHT22;33304;52.456;13.328;2023-06-10T13:14:02;34.20;1.00
47576;DHT22;33304;52.456;13.328;2023-06-10T13:16:31;34.30;1.00
47576;DHT22;33304;52.456;13.328;2023-06-10T13:18:58;34.40;1.00
47576;DHT22;33304;52.456;13.328;2023-06-10T13:21:28;34.60;1.00
47576;DHT22;33304;52.456;13.328;2023-06-10T13:23:55;34.70;1.00
47576;DHT22;33304;52.456;13.328;2023-06-10T13:26:22;34.20;1.00
47576;DHT22;33304;52.456;13.328;2023-06-10T13:28:49;34.10;1.00
47576;DHT22;33304;52.456;13.328;2023-06-10T13:31:16;34.30;1.00
47576;DHT22;33304;52.456;13.328;2023-06-10T13:33:43;34.70;1.00
47576;DHT22;33304;52.456;13.328;2023-06-10T13:36:10;35.30;1.00
47576;DHT22;33304;52.456;13.328;2023-06-10T13:38:39;34.90;1.00
47576;DHT22;33304;52.456;13.328;2023-06-10T13:41:06;35.30;1.00
47576;DHT22;33304;52.456;13.328;2023-06-10T13:43:33;35.50;1.00
47576;DHT22;33304;52.456;13.328;2023-06-10T13:46:00;35.50;1.00
47576;DHT22;33304;52.456;13.328;2023-06-10T13:48:27;36.50;1.00
47576;DHT22;33304;52.456;13.328;2023-06-10T13:50:55;36.50;1.00
47576;DHT22;33304;52.456;13.328;2023-06-10T13:53:22;36.00;1.00
47576;DHT22;33304;52.456;13.328;2023-06-10T13:55:50;35.20;1.00
47576;DHT22;33304;52.456;13.328;2023-06-10T13:58:17;35.20;1.00
47576;DHT22;33304;52.456;13.328;2023-06-10T14:00:44;35.00;1.00
47576;DHT22;33304;52.456;13.328;2023-06-10T14:03:11;34.40;1.00
47576;DHT22;33304;52.456;13.328;2023-06-10T14:05:38;34.20;1.00
47576;DHT22;33304;52.456;13.328;2023-06-10T14:08:05;34.10;1.00
47576;DHT22;33304;52.456;13.328;2023-06-10T14:10:33;33.90;1.00
47576;DHT22;33304;52.456;13.328;2023-06-10T14:13:01;34.10;1.00
47576;DHT22;33304;52.456;13.328;2023-06-10T14:15:29;33.80;1.00
47576;DHT22;33304;52.456;13.328;2023-06-10T14:17:56;34.00;1.00
47576;DHT22;33304;52.456;13.328;2023-06-10T14:20:23;34.20;1.00
47576;DHT22;33304;52.456;13.328;2023-06-10T14:22:51;33.00;1.00
47576;DHT22;33304;52.456;13.328;2023-06-10T14:25:18;32.30;1.00
47576;DHT22;33304;52.456;13.328;2023-06-10T14:27:45;31.80;1.00
47576;DHT22;33304;52.456;13.328;2023-06-10T14:30:15;31.40;1.00
47576;DHT22;33304;52.456;13.328;2023-06-10T14:32:42;31.60;1.00
47576;DHT22;33304;52.456;13.328;2023-06-10T14:35:09;31.80;1.00
47576;DHT22;33304;52.456;13.328;2023-06-10T14:37:36;31.40;1.00
47576;DHT22;33304;52.456;13.328;2023-06-10T14:40:05;31.50;1.00
47576;DHT22;33304;52.456;13.328;2023-06-10T14:42:32;32.20;1.00
47576;DHT22;33304;52.456;13.328;2023-06-10T14:44:59;32.80;1.00
47576;DHT22;33304;52.456;13.328;2023-06-10T14:47:28;33.90;1.00
47576;DHT22;33304;52.456;13.328;2023-06-10T14:49:55;34.10;1.00
47576;DHT22;33304;52.456;13.328;2023-06-10T14:52:22;34.40;1.00
47576;DHT22;33304;52.456;13.328;2023-06-10T14:54:49;34.20;1.00
47576;DHT22;33304;52.456;13.328;2023-06-10T14:57:16;33.90;1.00
47576;DHT22;33304;52.456;13.328;2023-06-10T14:59:44;33.90;1.00
47576;DHT22;33304;52.456;13.328;2023-06-10T15:02:11;34.00;1.00
47576;DHT22;33304;52.456;13.328;2023-06-10T15:04:39;34.60;1.00
47576;DHT22;33304;52.456;13.328;2023-06-10T15:07:06;34.90;1.00
47576;DHT22;33304;52.456;13.328;2023-06-10T15:09:34;35.40;1.00
47576;DHT22;33304;52.456;13.328;2023-06-10T15:12:01;35.80;1.00
47576;DHT22;33304;52.456;13.328;2023-06-10T15:14:29;36.00;1.00
47576;DHT22;33304;52.456;13.328;2023-06-10T15:16:56;35.30;1.00
47576;DHT22;33304;52.456;13.328;2023-06-10T15:19:25;35.20;1.00
47576;DHT22;33304;52.456;13.328;2023-06-10T15:21:54;35.00;1.00
47576;DHT22;33304;52.456;13.328;2023-06-10T15:24:21;35.50;1.00
47576;DHT22;33304;52.456;13.328;2023-06-10T15:26:48;35.00;1.00
47576;DHT22;33304;52.456;13.328;2023-06-10T15:29:15;34.90;1.00
47576;DHT22;33304;52.456;13.328;2023-06-10T15:31:42;35.20;1.00
47576;DHT22;33304;52.456;13.328;2023-06-10T15:34:09;36.10;1.00